sensor_id;sensor_type;location;lat;lon;timestamp;P1;durP1;ratioP1;P2;durP2;ratioP2
49828;SDS011;35723;51.194;5.112;2023-04-03T00:02:14;14.73;;;5.55;;
49828;SDS011;35723;51.194;5.112;2023-04-03T00:04:40;12.60;;;5.35;;
49828;SDS011;35723;51.194;5.112;2023-04-03T00:07:06;15.57;;;5.93;;
49828;SDS011;35723;51.194;5.112;2023-04-03T00:09:31;15.35;;;6.07;;
49828;SDS011;35723;51.194;5.112;2023-04-03T00:11:57;16.45;;;6.50;;
49828;SDS011;35723;51.194;5.112;2023-04-03T00:14:23;14.40;;;5.97;;
49828;SDS011;35723;51.194;5.112;2023-04-03T00:16:48;15.45;;;6.22;;
49828;SDS011;35723;51.194;5.112;2023-04-03T00:19:14;17.75;;;6.57;;
49828;SDS011;35723;51.194;5.112;2023-04-03T00:21:40;18.42;;;6.70;;
49828;SDS011;35723;51.194;5.112;2023-04-03T00:24:06;17.90;;;6.50;;
49828;SDS011;35723;51.194;5.112;2023-04-03T00:26:31;14.80;;;6.15;;
49828;SDS011;35723;51.194;5.112;2023-04-03T00:28:57;14.88;;;6.28;;
49828;SDS011;35723;51.194;5.112;2023-04-03T00:31:23;20.15;;;7.13;;
49828;SDS011;35723;51.194;5.112;2023-04-03T00:33:48;17.50;;;7.40;;
49828;SDS011;35723;51.194;5.112;2023-04-03T00:36:14;22.05;;;8.25;;
49828;SDS011;35723;51.194;5.112;2023-04-03T00:38:40;16.88;;;7.43;;
49828;SDS011;35723;51.194;5.112;2023-04-03T00:41:06;20.20;;;7.90;;
49828;SDS011;35723;51.194;5.112;2023-04-03T00:43:32;17.52;;;7.57;;
49828;SDS011;35723;51.194;5.112;2023-04-03T00:45:58;21.52;;;7.93;;
49828;SDS011;35723;51.194;5.112;2023-04-03T00:48:26;20.27;;;8.15;;
49828;SDS011;35723;51.194;5.112;2023-04-03T00:53:37;21.65;;;8.32;;
49828;SDS011;35723;51.194;5.112;2023-04-03T00:56:06;19.75;;;8.15;;
49828;SDS011;35723;51.194;5.112;2023-04-03T00:58:46;18.30;;;8.10;;
49828;SDS011;35723;51.194;5.112;2023-04-03T01:01:18;21.23;;;8.07;;
49828;SDS011;35723;51.194;5.112;2023-04-03T01:07:14;16.98;;;7.60;;
49828;SDS011;35723;51.194;5.112;2023-04-03T01:09:49;18.63;;;8.02;;
49828;SDS011;35723;51.194;5.112;2023-04-03T01:12:19;16.25;;;7.55;;
49828;SDS011;35723;51.194;5.112;2023-04-03T01:14:48;17.70;;;7.63;;
49828;SDS011;35723;51.194;5.112;2023-04-03T01:17:27;22.23;;;7.78;;
49828;SDS011;35723;51.194;5.112;2023-04-03T01:20:23;19.75;;;7.90;;
49828;SDS011;35723;51.194;5.112;2023-04-03T01:28:06;17.48;;;7.45;;
49828;SDS011;35723;51.194;5.112;2023-04-03T01:30:34;18.27;;;7.60;;
49828;SDS011;35723;51.194;5.112;2023-04-03T01:33:06;15.50;;;7.32;;
49828;SDS011;35723;51.194;5.112;2023-04-03T01:35:32;18.60;;;7.78;;
49828;SDS011;35723;51.194;5.112;2023-04-03T01:37:57;18.50;;;7.30;;
49828;SDS011;35723;51.194;5.112;2023-04-03T01:40:23;36.47;;;10.35;;
49828;SDS011;35723;51.194;5.112;2023-04-03T01:42:48;16.38;;;7.53;;
49828;SDS011;35723;51.194;5.112;2023-04-03T01:45:14;18.38;;;7.70;;
49828;SDS011;35723;51.194;5.112;2023-04-03T01:47:40;16.67;;;7.57;;
49828;SDS011;35723;51.194;5.112;2023-04-03T01:50:06;17.08;;;7.05;;
49828;SDS011;35723;51.194;5.112;2023-04-03T01:52:31;18.55;;;7.65;;
49828;SDS011;35723;51.194;5.112;2023-04-03T01:54:57;19.35;;;8.25;;
49828;SDS011;35723;51.194;5.112;2023-04-03T01:57:23;19.00;;;7.90;;
49828;SDS011;35723;51.194;5.112;2023-04-03T01:59:48;18.60;;;8.00;;
49828;SDS011;35723;51.194;5.112;2023-04-03T02:02:14;17.17;;;7.53;;
49828;SDS011;35723;51.194;5.112;2023-04-03T02:04:40;21.00;;;7.80;;
49828;SDS011;35723;51.194;5.112;2023-04-03T02:07:06;19.50;;;8.10;;
49828;SDS011;35723;51.194;5.112;2023-04-03T02:09:32;17.50;;;7.88;;
49828;SDS011;35723;51.194;5.112;2023-04-03T02:11:58;19.98;;;8.45;;
49828;SDS011;35723;51.194;5.112;2023-04-03T02:14:23;22.23;;;8.20;;
49828;SDS011;35723;51.194;5.112;2023-04-03T02:16:49;17.80;;;8.45;;
49828;SDS011;35723;51.194;5.112;2023-04-03T02:19:15;18.33;;;8.18;;
49828;SDS011;35723;51.194;5.112;2023-04-03T02:21:41;20.90;;;8.20;;
49828;SDS011;35723;51.194;5.112;2023-04-03T02:24:07;18.10;;;8.15;;
49828;SDS011;35723;51.194;5.112;2023-04-03T02:26:33;20.10;;;8.10;;
49828;SDS011;35723;51.194;5.112;2023-04-03T02:28:58;18.60;;;8.40;;
49828;SDS011;35723;51.194;5.112;2023-04-03T02:31:24;17.90;;;8.20;;
49828;SDS011;35723;51.194;5.112;2023-04-03T02:33:50;19.15;;;8.32;;
49828;SDS011;35723;51.194;5.112;2023-04-03T02:36:16;18.88;;;8.32;;
49828;SDS011;35723;51.194;5.112;2023-04-03T02:38:41;18.02;;;7.80;;
49828;SDS011;35723;51.194;5.112;2023-04-03T02:41:08;19.48;;;8.00;;
49828;SDS011;35723;51.194;5.112;2023-04-03T02:43:36;18.55;;;8.05;;
49828;SDS011;35723;51.194;5.112;2023-04-03T02:46:01;19.35;;;8.00;;
49828;SDS011;35723;51.194;5.112;2023-04-03T02:48:27;17.00;;;7.93;;
49828;SDS011;35723;51.194;5.112;2023-04-03T02:50:53;17.65;;;8.13;;
49828;SDS011;35723;51.194;5.112;2023-04-03T02:53:19;17.73;;;8.00;;
49828;SDS011;35723;51.194;5.112;2023-04-03T02:55:45;20.35;;;8.95;;
49828;SDS011;35723;51.194;5.112;2023-04-03T02:58:10;21.27;;;8.80;;
49828;SDS011;35723;51.194;5.112;2023-04-03T03:00:36;19.90;;;8.90;;
49828;SDS011;35723;51.194;5.112;2023-04-03T03:03:02;20.20;;;8.93;;
49828;SDS011;35723;51.194;5.112;2023-04-03T03:05:28;19.17;;;8.13;;
49828;SDS011;35723;51.194;5.112;2023-04-03T03:07:54;19.08;;;8.43;;
49828;SDS011;35723;51.194;5.112;2023-04-03T03:10:20;23.42;;;8.80;;
49828;SDS011;35723;51.194;5.112;2023-04-03T03:12:47;19.45;;;8.30;;
49828;SDS011;35723;51.194;5.112;2023-04-03T03:15:13;21.60;;;8.95;;
49828;SDS011;35723;51.194;5.112;2023-04-03T03:17:40;20.13;;;8.93;;
49828;SDS011;35723;51.194;5.112;2023-04-03T03:20:06;20.15;;;9.05;;
49828;SDS011;35723;51.194;5.112;2023-04-03T03:22:33;22.08;;;9.30;;
49828;SDS011;35723;51.194;5.112;2023-04-03T03:25:00;18.65;;;8.73;;
49828;SDS011;35723;51.194;5.112;2023-04-03T03:27:26;18.02;;;8.70;;
49828;SDS011;35723;51.194;5.112;2023-04-03T03:29:52;18.13;;;8.68;;
49828;SDS011;35723;51.194;5.112;2023-04-03T03:32:17;21.48;;;8.98;;
49828;SDS011;35723;51.194;5.112;2023-04-03T03:34:43;21.50;;;9.20;;
49828;SDS011;35723;51.194;5.112;2023-04-03T03:37:08;19.33;;;8.85;;
49828;SDS011;35723;51.194;5.112;2023-04-03T03:39:34;21.95;;;8.73;;
49828;SDS011;35723;51.194;5.112;2023-04-03T03:42:00;17.60;;;8.18;;
49828;SDS011;35723;51.194;5.112;2023-04-03T03:44:25;19.90;;;9.18;;
49828;SDS011;35723;51.194;5.112;2023-04-03T03:46:53;19.00;;;8.82;;
49828;SDS011;35723;51.194;5.112;2023-04-03T03:49:20;22.90;;;9.10;;
49828;SDS011;35723;51.194;5.112;2023-04-03T03:51:46;20.33;;;8.82;;
49828;SDS011;35723;51.194;5.112;2023-04-03T03:54:12;19.00;;;8.80;;
49828;SDS011;35723;51.194;5.112;2023-04-03T03:56:38;19.17;;;9.10;;
49828;SDS011;35723;51.194;5.112;2023-04-03T03:59:04;19.35;;;9.40;;
49828;SDS011;35723;51.194;5.112;2023-04-03T04:01:30;18.77;;;9.05;;
49828;SDS011;35723;51.194;5.112;2023-04-03T04:03:56;19.13;;;9.23;;
49828;SDS011;35723;51.194;5.112;2023-04-03T04:06:22;22.17;;;9.13;;
49828;SDS011;35723;51.194;5.112;2023-04-03T04:08:48;20.75;;;9.40;;
49828;SDS011;35723;51.194;5.112;2023-04-03T04:11:13;20.85;;;9.75;;
49828;SDS011;35723;51.194;5.112;2023-04-03T04:13:39;19.05;;;8.70;;
49828;SDS011;35723;51.194;5.112;2023-04-03T04:16:05;21.58;;;9.27;;
49828;SDS011;35723;51.194;5.112;2023-04-03T04:18:31;22.95;;;10.30;;
49828;SDS011;35723;51.194;5.112;2023-04-03T04:20:57;20.77;;;9.77;;
49828;SDS011;35723;51.194;5.112;2023-04-03T04:23:23;23.55;;;10.27;;
49828;SDS011;35723;51.194;5.112;2023-04-03T04:25:48;19.40;;;9.55;;
49828;SDS011;35723;51.194;5.112;2023-04-03T04:28:15;22.17;;;10.27;;
49828;SDS011;35723;51.194;5.112;2023-04-03T04:30:41;24.58;;;9.90;;
49828;SDS011;35723;51.194;5.112;2023-04-03T04:33:06;21.38;;;9.52;;
49828;SDS011;35723;51.194;5.112;2023-04-03T04:35:32;20.33;;;9.77;;
49828;SDS011;35723;51.194;5.112;2023-04-03T04:37:58;22.40;;;9.63;;
49828;SDS011;35723;51.194;5.112;2023-04-03T04:40:24;21.40;;;9.65;;
49828;SDS011;35723;51.194;5.112;2023-04-03T04:42:50;26.02;;;10.70;;
49828;SDS011;35723;51.194;5.112;2023-04-03T04:45:16;19.83;;;9.40;;
49828;SDS011;35723;51.194;5.112;2023-04-03T04:47:42;23.02;;;9.90;;
49828;SDS011;35723;51.194;5.112;2023-04-03T04:50:08;22.20;;;9.40;;
49828;SDS011;35723;51.194;5.112;2023-04-03T04:52:34;21.80;;;10.00;;
49828;SDS011;35723;51.194;5.112;2023-04-03T04:55:00;22.63;;;9.73;;
49828;SDS011;35723;51.194;5.112;2023-04-03T04:57:26;21.70;;;9.90;;
49828;SDS011;35723;51.194;5.112;2023-04-03T04:59:51;25.05;;;10.00;;
49828;SDS011;35723;51.194;5.112;2023-04-03T05:05:28;22.77;;;10.40;;
49828;SDS011;35723;51.194;5.112;2023-04-03T05:07:54;24.98;;;10.27;;
49828;SDS011;35723;51.194;5.112;2023-04-03T05:20:06;22.45;;;10.07;;
49828;SDS011;35723;51.194;5.112;2023-04-03T05:25:37;20.95;;;9.45;;
49828;SDS011;35723;51.194;5.112;2023-04-03T05:28:03;22.67;;;9.65;;
49828;SDS011;35723;51.194;5.112;2023-04-03T05:30:42;23.73;;;10.05;;
49828;SDS011;35723;51.194;5.112;2023-04-03T05:39:41;22.25;;;10.70;;
49828;SDS011;35723;51.194;5.112;2023-04-03T05:42:07;21.23;;;9.60;;
49828;SDS011;35723;51.194;5.112;2023-04-03T05:44:33;26.70;;;10.90;;
49828;SDS011;35723;51.194;5.112;2023-04-03T05:47:19;25.52;;;10.93;;
49828;SDS011;35723;51.194;5.112;2023-04-03T05:52:49;21.75;;;9.20;;
49828;SDS011;35723;51.194;5.112;2023-04-03T05:58:38;19.88;;;7.97;;
49828;SDS011;35723;51.194;5.112;2023-04-03T06:08:05;20.40;;;7.85;;
49828;SDS011;35723;51.194;5.112;2023-04-03T06:10:32;17.17;;;7.15;;
49828;SDS011;35723;51.194;5.112;2023-04-03T06:12:57;19.73;;;7.82;;
49828;SDS011;35723;51.194;5.112;2023-04-03T06:15:23;17.90;;;6.78;;
49828;SDS011;35723;51.194;5.112;2023-04-03T06:17:49;22.20;;;6.72;;
49828;SDS011;35723;51.194;5.112;2023-04-03T06:20:15;20.05;;;6.70;;
49828;SDS011;35723;51.194;5.112;2023-04-03T06:22:41;15.73;;;5.90;;
49828;SDS011;35723;51.194;5.112;2023-04-03T06:25:07;18.73;;;5.93;;
49828;SDS011;35723;51.194;5.112;2023-04-03T06:27:34;18.88;;;5.80;;
49828;SDS011;35723;51.194;5.112;2023-04-03T06:30:00;17.13;;;6.13;;
49828;SDS011;35723;51.194;5.112;2023-04-03T06:32:25;16.20;;;5.57;;
49828;SDS011;35723;51.194;5.112;2023-04-03T06:34:51;17.10;;;5.88;;
49828;SDS011;35723;51.194;5.112;2023-04-03T06:37:21;16.48;;;5.38;;
49828;SDS011;35723;51.194;5.112;2023-04-03T06:39:48;14.98;;;5.43;;
49828;SDS011;35723;51.194;5.112;2023-04-03T06:42:14;15.57;;;5.60;;
49828;SDS011;35723;51.194;5.112;2023-04-03T06:44:40;15.88;;;4.88;;
49828;SDS011;35723;51.194;5.112;2023-04-03T06:47:05;13.68;;;4.93;;
49828;SDS011;35723;51.194;5.112;2023-04-03T06:49:31;16.20;;;5.10;;
49828;SDS011;35723;51.194;5.112;2023-04-03T06:51:57;16.95;;;5.30;;
49828;SDS011;35723;51.194;5.112;2023-04-03T06:54:23;14.27;;;5.15;;
49828;SDS011;35723;51.194;5.112;2023-04-03T06:56:49;15.43;;;5.03;;
49828;SDS011;35723;51.194;5.112;2023-04-03T07:02:00;15.07;;;5.30;;
49828;SDS011;35723;51.194;5.112;2023-04-03T07:04:26;14.77;;;5.13;;
49828;SDS011;35723;51.194;5.112;2023-04-03T07:06:52;14.55;;;4.85;;
49828;SDS011;35723;51.194;5.112;2023-04-03T07:09:17;17.02;;;4.70;;
49828;SDS011;35723;51.194;5.112;2023-04-03T07:11:43;14.48;;;4.63;;
49828;SDS011;35723;51.194;5.112;2023-04-03T07:14:09;15.07;;;5.18;;
49828;SDS011;35723;51.194;5.112;2023-04-03T07:16:35;16.13;;;4.93;;
49828;SDS011;35723;51.194;5.112;2023-04-03T07:19:01;13.65;;;4.50;;
49828;SDS011;35723;51.194;5.112;2023-04-03T07:21:27;17.42;;;4.60;;
49828;SDS011;35723;51.194;5.112;2023-04-03T07:23:54;16.90;;;4.43;;
49828;SDS011;35723;51.194;5.112;2023-04-03T07:26:20;14.70;;;4.35;;
49828;SDS011;35723;51.194;5.112;2023-04-03T07:28:47;14.82;;;4.68;;
49828;SDS011;35723;51.194;5.112;2023-04-03T07:31:13;11.75;;;4.15;;
49828;SDS011;35723;51.194;5.112;2023-04-03T07:33:40;15.15;;;4.18;;
49828;SDS011;35723;51.194;5.112;2023-04-03T07:36:07;19.23;;;5.00;;
49828;SDS011;35723;51.194;5.112;2023-04-03T07:38:34;12.68;;;4.30;;
49828;SDS011;35723;51.194;5.112;2023-04-03T07:41:01;12.85;;;4.03;;
49828;SDS011;35723;51.194;5.112;2023-04-03T07:43:26;15.38;;;4.15;;
49828;SDS011;35723;51.194;5.112;2023-04-03T07:45:52;11.73;;;3.83;;
49828;SDS011;35723;51.194;5.112;2023-04-03T07:48:22;15.55;;;4.15;;
49828;SDS011;35723;51.194;5.112;2023-04-03T07:50:50;13.55;;;4.18;;
49828;SDS011;35723;51.194;5.112;2023-04-03T07:53:16;15.02;;;4.20;;
49828;SDS011;35723;51.194;5.112;2023-04-03T07:55:42;11.38;;;3.90;;
49828;SDS011;35723;51.194;5.112;2023-04-03T07:58:11;12.02;;;3.97;;
49828;SDS011;35723;51.194;5.112;2023-04-03T08:00:39;14.15;;;4.15;;
49828;SDS011;35723;51.194;5.112;2023-04-03T08:03:05;14.57;;;3.83;;
49828;SDS011;35723;51.194;5.112;2023-04-03T08:05:36;15.55;;;4.00;;
49828;SDS011;35723;51.194;5.112;2023-04-03T08:08:05;14.02;;;3.78;;
49828;SDS011;35723;51.194;5.112;2023-04-03T08:10:32;11.70;;;3.63;;
49828;SDS011;35723;51.194;5.112;2023-04-03T08:12:59;16.33;;;3.78;;
49828;SDS011;35723;51.194;5.112;2023-04-03T08:15:24;10.45;;;3.60;;
49828;SDS011;35723;51.194;5.112;2023-04-03T08:17:50;13.38;;;3.95;;
49828;SDS011;35723;51.194;5.112;2023-04-03T08:20:16;13.52;;;3.80;;
49828;SDS011;35723;51.194;5.112;2023-04-03T08:22:42;13.18;;;3.60;;
49828;SDS011;35723;51.194;5.112;2023-04-03T08:25:08;14.13;;;3.70;;
49828;SDS011;35723;51.194;5.112;2023-04-03T08:27:34;13.00;;;3.67;;
49828;SDS011;35723;51.194;5.112;2023-04-03T08:30:00;16.02;;;4.03;;
49828;SDS011;35723;51.194;5.112;2023-04-03T08:32:26;13.30;;;3.63;;
49828;SDS011;35723;51.194;5.112;2023-04-03T08:34:52;11.05;;;3.35;;
49828;SDS011;35723;51.194;5.112;2023-04-03T08:37:18;11.68;;;3.90;;
49828;SDS011;35723;51.194;5.112;2023-04-03T08:39:44;12.18;;;3.67;;
49828;SDS011;35723;51.194;5.112;2023-04-03T08:42:14;15.45;;;3.70;;
49828;SDS011;35723;51.194;5.112;2023-04-03T08:45:18;12.45;;;3.88;;
49828;SDS011;35723;51.194;5.112;2023-04-03T08:47:49;13.05;;;3.78;;
49828;SDS011;35723;51.194;5.112;2023-04-03T08:50:34;13.98;;;3.58;;
49828;SDS011;35723;51.194;5.112;2023-04-03T08:53:04;11.30;;;3.40;;
49828;SDS011;35723;51.194;5.112;2023-04-03T08:55:45;11.50;;;3.17;;
49828;SDS011;35723;51.194;5.112;2023-04-03T08:58:19;11.98;;;3.17;;
49828;SDS011;35723;51.194;5.112;2023-04-03T09:00:55;11.55;;;3.42;;
49828;SDS011;35723;51.194;5.112;2023-04-03T09:03:24;11.07;;;3.20;;
49828;SDS011;35723;51.194;5.112;2023-04-03T09:14:01;11.20;;;2.80;;
49828;SDS011;35723;51.194;5.112;2023-04-03T09:16:39;14.13;;;3.10;;
49828;SDS011;35723;51.194;5.112;2023-04-03T09:22:23;11.93;;;2.83;;
49828;SDS011;35723;51.194;5.112;2023-04-03T09:25:02;14.30;;;3.03;;
49828;SDS011;35723;51.194;5.112;2023-04-03T09:27:35;11.52;;;3.20;;
49828;SDS011;35723;51.194;5.112;2023-04-03T09:30:02;12.45;;;3.20;;
49828;SDS011;35723;51.194;5.112;2023-04-03T09:32:32;10.30;;;2.95;;
49828;SDS011;35723;51.194;5.112;2023-04-03T09:35:04;11.95;;;2.95;;
49828;SDS011;35723;51.194;5.112;2023-04-03T09:37:44;13.02;;;2.97;;
49828;SDS011;35723;51.194;5.112;2023-04-03T09:40:45;14.32;;;3.38;;
49828;SDS011;35723;51.194;5.112;2023-04-03T09:45:43;10.38;;;2.70;;
49828;SDS011;35723;51.194;5.112;2023-04-03T09:51:00;7.95;;;2.20;;
49828;SDS011;35723;51.194;5.112;2023-04-03T09:53:32;8.13;;;2.40;;
49828;SDS011;35723;51.194;5.112;2023-04-03T09:58:40;9.30;;;2.28;;
49828;SDS011;35723;51.194;5.112;2023-04-03T10:01:23;7.70;;;2.10;;
49828;SDS011;35723;51.194;5.112;2023-04-03T10:06:42;5.50;;;1.75;;
49828;SDS011;35723;51.194;5.112;2023-04-03T10:14:54;6.32;;;1.80;;
49828;SDS011;35723;51.194;5.112;2023-04-03T10:19:58;6.65;;;1.80;;
49828;SDS011;35723;51.194;5.112;2023-04-03T10:23:27;9.80;;;2.90;;
49828;SDS011;35723;51.194;5.112;2023-04-03T10:31:21;4.88;;;1.75;;
49828;SDS011;35723;51.194;5.112;2023-04-03T10:39:51;5.05;;;1.60;;
49828;SDS011;35723;51.194;5.112;2023-04-03T10:48:04;6.30;;;1.60;;
49828;SDS011;35723;51.194;5.112;2023-04-03T10:58:52;7.07;;;1.80;;
49828;SDS011;35723;51.194;5.112;2023-04-03T11:01:24;6.25;;;1.88;;
49828;SDS011;35723;51.194;5.112;2023-04-03T11:03:57;4.65;;;1.58;;
49828;SDS011;35723;51.194;5.112;2023-04-03T11:06:25;7.32;;;1.63;;
49828;SDS011;35723;51.194;5.112;2023-04-03T11:11:32;6.22;;;1.80;;
49828;SDS011;35723;51.194;5.112;2023-04-03T11:14:14;4.70;;;1.90;;
49828;SDS011;35723;51.194;5.112;2023-04-03T11:22:30;6.20;;;1.92;;
49828;SDS011;35723;51.194;5.112;2023-04-03T11:27:49;6.53;;;1.60;;
49828;SDS011;35723;51.194;5.112;2023-04-03T11:30:43;4.85;;;1.63;;
49828;SDS011;35723;51.194;5.112;2023-04-03T11:36:04;4.80;;;1.75;;
49828;SDS011;35723;51.194;5.112;2023-04-03T11:38:35;7.18;;;2.10;;
49828;SDS011;35723;51.194;5.112;2023-04-03T11:41:06;6.00;;;1.73;;
49828;SDS011;35723;51.194;5.112;2023-04-03T11:43:33;6.13;;;1.90;;
49828;SDS011;35723;51.194;5.112;2023-04-03T11:46:05;8.90;;;2.03;;
49828;SDS011;35723;51.194;5.112;2023-04-03T11:51:00;7.68;;;2.50;;
49828;SDS011;35723;51.194;5.112;2023-04-03T12:01:46;7.45;;;2.20;;
49828;SDS011;35723;51.194;5.112;2023-04-03T12:04:14;6.53;;;1.95;;
49828;SDS011;35723;51.194;5.112;2023-04-03T12:06:42;8.00;;;2.25;;
49828;SDS011;35723;51.194;5.112;2023-04-03T12:11:51;4.82;;;2.03;;
49828;SDS011;35723;51.194;5.112;2023-04-03T12:14:17;7.05;;;2.38;;
49828;SDS011;35723;51.194;5.112;2023-04-03T12:16:44;9.40;;;2.40;;
49828;SDS011;35723;51.194;5.112;2023-04-03T12:22:06;6.35;;;2.10;;
49828;SDS011;35723;51.194;5.112;2023-04-03T12:24:39;5.65;;;2.00;;
49828;SDS011;35723;51.194;5.112;2023-04-03T12:46:36;4.80;;;1.67;;
49828;SDS011;35723;51.194;5.112;2023-04-03T12:49:12;8.05;;;1.80;;
49828;SDS011;35723;51.194;5.112;2023-04-03T12:52:00;7.63;;;1.75;;
49828;SDS011;35723;51.194;5.112;2023-04-03T12:54:37;4.82;;;1.85;;
49828;SDS011;35723;51.194;5.112;2023-04-03T12:59:36;5.35;;;1.80;;
49828;SDS011;35723;51.194;5.112;2023-04-03T13:02:07;5.28;;;1.73;;
49828;SDS011;35723;51.194;5.112;2023-04-03T13:04:42;9.90;;;2.00;;
49828;SDS011;35723;51.194;5.112;2023-04-03T13:07:18;3.80;;;1.67;;
49828;SDS011;35723;51.194;5.112;2023-04-03T13:09:56;4.50;;;1.75;;
49828;SDS011;35723;51.194;5.112;2023-04-03T13:12:24;5.10;;;1.90;;
49828;SDS011;35723;51.194;5.112;2023-04-03T13:14:55;5.88;;;1.70;;
49828;SDS011;35723;51.194;5.112;2023-04-03T13:17:23;4.88;;;1.60;;
49828;SDS011;35723;51.194;5.112;2023-04-03T13:19:49;7.43;;;1.55;;
49828;SDS011;35723;51.194;5.112;2023-04-03T13:24:58;6.10;;;1.98;;
49828;SDS011;35723;51.194;5.112;2023-04-03T13:27:27;5.90;;;1.90;;
49828;SDS011;35723;51.194;5.112;2023-04-03T13:29:57;5.00;;;1.65;;
49828;SDS011;35723;51.194;5.112;2023-04-03T13:32:26;4.88;;;1.80;;
49828;SDS011;35723;51.194;5.112;2023-04-03T13:34:54;6.85;;;1.73;;
49828;SDS011;35723;51.194;5.112;2023-04-03T13:37:28;5.40;;;1.55;;
49828;SDS011;35723;51.194;5.112;2023-04-03T13:40:29;5.82;;;1.60;;
49828;SDS011;35723;51.194;5.112;2023-04-03T13:42:57;6.80;;;1.77;;
49828;SDS011;35723;51.194;5.112;2023-04-03T13:45:28;5.45;;;1.52;;
49828;SDS011;35723;51.194;5.112;2023-04-03T13:48:16;3.90;;;1.50;;
49828;SDS011;35723;51.194;5.112;2023-04-03T13:50:59;5.50;;;1.70;;
49828;SDS011;35723;51.194;5.112;2023-04-03T13:53:51;6.18;;;1.80;;
49828;SDS011;35723;51.194;5.112;2023-04-03T13:56:31;6.53;;;1.83;;
49828;SDS011;35723;51.194;5.112;2023-04-03T13:59:04;11.13;;;2.20;;
49828;SDS011;35723;51.194;5.112;2023-04-03T14:01:46;5.78;;;1.90;;
49828;SDS011;35723;51.194;5.112;2023-04-03T14:04:20;4.63;;;1.80;;
49828;SDS011;35723;51.194;5.112;2023-04-03T14:06:50;6.40;;;1.80;;
49828;SDS011;35723;51.194;5.112;2023-04-03T14:09:17;6.15;;;1.90;;
49828;SDS011;35723;51.194;5.112;2023-04-03T14:11:45;7.50;;;1.90;;
49828;SDS011;35723;51.194;5.112;2023-04-03T14:14:18;13.05;;;2.00;;
49828;SDS011;35723;51.194;5.112;2023-04-03T14:16:53;2.70;;;1.50;;
49828;SDS011;35723;51.194;5.112;2023-04-03T14:19:34;5.32;;;1.90;;
49828;SDS011;35723;51.194;5.112;2023-04-03T14:22:01;8.57;;;1.90;;
49828;SDS011;35723;51.194;5.112;2023-04-03T14:24:37;3.78;;;1.70;;
49828;SDS011;35723;51.194;5.112;2023-04-03T14:27:05;5.32;;;1.90;;
49828;SDS011;35723;51.194;5.112;2023-04-03T14:29:52;4.93;;;1.92;;
49828;SDS011;35723;51.194;5.112;2023-04-03T14:32:23;6.75;;;1.75;;
49828;SDS011;35723;51.194;5.112;2023-04-03T14:34:49;7.57;;;2.10;;
49828;SDS011;35723;51.194;5.112;2023-04-03T14:37:17;12.20;;;2.42;;
49828;SDS011;35723;51.194;5.112;2023-04-03T14:39:45;5.32;;;1.80;;
49828;SDS011;35723;51.194;5.112;2023-04-03T14:42:12;6.30;;;1.90;;
49828;SDS011;35723;51.194;5.112;2023-04-03T14:44:39;8.30;;;2.20;;
49828;SDS011;35723;51.194;5.112;2023-04-03T14:47:08;8.63;;;2.40;;
49828;SDS011;35723;51.194;5.112;2023-04-03T14:49:38;8.48;;;2.10;;
49828;SDS011;35723;51.194;5.112;2023-04-03T14:52:04;6.68;;;2.10;;
49828;SDS011;35723;51.194;5.112;2023-04-03T14:54:31;7.85;;;2.00;;
49828;SDS011;35723;51.194;5.112;2023-04-03T14:56:58;8.30;;;2.30;;
49828;SDS011;35723;51.194;5.112;2023-04-03T14:59:24;9.02;;;2.53;;
49828;SDS011;35723;51.194;5.112;2023-04-03T15:01:51;6.22;;;2.10;;
49828;SDS011;35723;51.194;5.112;2023-04-03T15:04:20;6.60;;;2.17;;
49828;SDS011;35723;51.194;5.112;2023-04-03T15:06:46;15.20;;;2.58;;
49828;SDS011;35723;51.194;5.112;2023-04-03T15:09:18;11.73;;;2.53;;
49828;SDS011;35723;51.194;5.112;2023-04-03T15:14:12;8.13;;;2.40;;
49828;SDS011;35723;51.194;5.112;2023-04-03T15:16:37;7.45;;;2.50;;
49828;SDS011;35723;51.194;5.112;2023-04-03T15:19:03;8.57;;;2.20;;
49828;SDS011;35723;51.194;5.112;2023-04-03T15:21:29;5.90;;;2.30;;
49828;SDS011;35723;51.194;5.112;2023-04-03T15:23:55;11.70;;;2.58;;
49828;SDS011;35723;51.194;5.112;2023-04-03T15:26:20;7.65;;;2.38;;
49828;SDS011;35723;51.194;5.112;2023-04-03T15:28:46;6.28;;;2.15;;
49828;SDS011;35723;51.194;5.112;2023-04-03T15:31:12;6.95;;;2.05;;
49828;SDS011;35723;51.194;5.112;2023-04-03T15:33:38;9.20;;;2.35;;
49828;SDS011;35723;51.194;5.112;2023-04-03T15:36:04;6.05;;;2.10;;
49828;SDS011;35723;51.194;5.112;2023-04-03T15:38:30;9.82;;;2.45;;
49828;SDS011;35723;51.194;5.112;2023-04-03T15:40:56;6.55;;;2.40;;
49828;SDS011;35723;51.194;5.112;2023-04-03T15:43:22;8.85;;;2.47;;
49828;SDS011;35723;51.194;5.112;2023-04-03T15:45:48;8.30;;;2.60;;
49828;SDS011;35723;51.194;5.112;2023-04-03T15:48:15;11.35;;;2.75;;
49828;SDS011;35723;51.194;5.112;2023-04-03T15:50:42;6.22;;;2.25;;
49828;SDS011;35723;51.194;5.112;2023-04-03T15:53:08;7.90;;;2.40;;
49828;SDS011;35723;51.194;5.112;2023-04-03T15:55:35;9.38;;;2.50;;
49828;SDS011;35723;51.194;5.112;2023-04-03T15:58:02;8.45;;;2.40;;
49828;SDS011;35723;51.194;5.112;2023-04-03T16:00:28;8.27;;;2.30;;
49828;SDS011;35723;51.194;5.112;2023-04-03T16:02:55;6.50;;;2.17;;
49828;SDS011;35723;51.194;5.112;2023-04-03T16:05:24;6.82;;;2.45;;
49828;SDS011;35723;51.194;5.112;2023-04-03T16:07:50;9.60;;;3.00;;
49828;SDS011;35723;51.194;5.112;2023-04-03T16:10:17;6.28;;;2.33;;
49828;SDS011;35723;51.194;5.112;2023-04-03T16:12:43;8.38;;;2.38;;
49828;SDS011;35723;51.194;5.112;2023-04-03T16:15:09;6.53;;;2.50;;
49828;SDS011;35723;51.194;5.112;2023-04-03T16:17:36;9.32;;;2.72;;
49828;SDS011;35723;51.194;5.112;2023-04-03T16:20:04;7.00;;;2.47;;
49828;SDS011;35723;51.194;5.112;2023-04-03T16:22:31;8.40;;;2.50;;
49828;SDS011;35723;51.194;5.112;2023-04-03T16:24:57;8.95;;;2.50;;
49828;SDS011;35723;51.194;5.112;2023-04-03T16:27:23;9.02;;;2.55;;
49828;SDS011;35723;51.194;5.112;2023-04-03T16:29:53;11.52;;;2.67;;
49828;SDS011;35723;51.194;5.112;2023-04-03T16:32:19;7.40;;;2.50;;
49828;SDS011;35723;51.194;5.112;2023-04-03T16:34:45;6.32;;;2.58;;
49828;SDS011;35723;51.194;5.112;2023-04-03T16:37:11;15.88;;;4.43;;
49828;SDS011;35723;51.194;5.112;2023-04-03T16:39:36;25.05;;;7.32;;
49828;SDS011;35723;51.194;5.112;2023-04-03T16:42:02;19.17;;;5.43;;
49828;SDS011;35723;51.194;5.112;2023-04-03T16:44:28;21.67;;;5.50;;
49828;SDS011;35723;51.194;5.112;2023-04-03T16:46:54;15.48;;;4.65;;
49828;SDS011;35723;51.194;5.112;2023-04-03T16:49:19;14.20;;;3.97;;
49828;SDS011;35723;51.194;5.112;2023-04-03T16:51:45;12.77;;;2.90;;
49828;SDS011;35723;51.194;5.112;2023-04-03T16:54:13;10.68;;;3.17;;
49828;SDS011;35723;51.194;5.112;2023-04-03T16:56:39;9.30;;;3.00;;
49828;SDS011;35723;51.194;5.112;2023-04-03T16:59:05;8.35;;;2.55;;
49828;SDS011;35723;51.194;5.112;2023-04-03T17:01:31;9.57;;;2.78;;
49828;SDS011;35723;51.194;5.112;2023-04-03T17:03:57;10.25;;;2.70;;
49828;SDS011;35723;51.194;5.112;2023-04-03T17:06:22;8.98;;;2.53;;
49828;SDS011;35723;51.194;5.112;2023-04-03T17:08:49;9.10;;;2.50;;
49828;SDS011;35723;51.194;5.112;2023-04-03T17:11:16;6.32;;;2.30;;
49828;SDS011;35723;51.194;5.112;2023-04-03T17:13:42;10.52;;;2.55;;
49828;SDS011;35723;51.194;5.112;2023-04-03T17:16:08;9.35;;;2.35;;
49828;SDS011;35723;51.194;5.112;2023-04-03T17:18:37;7.10;;;2.60;;
49828;SDS011;35723;51.194;5.112;2023-04-03T17:21:04;7.10;;;2.33;;
49828;SDS011;35723;51.194;5.112;2023-04-03T17:23:30;7.78;;;2.50;;
49828;SDS011;35723;51.194;5.112;2023-04-03T17:25:59;7.72;;;2.50;;
49828;SDS011;35723;51.194;5.112;2023-04-03T17:28:25;7.20;;;2.30;;
49828;SDS011;35723;51.194;5.112;2023-04-03T17:30:58;8.55;;;2.50;;